sensor_id;sensor_type;location;lat;lon;timestamp;temperature;humidity
21734;DHT22;11029;47.820;10.534;2024-03-22T00:00:46;4.40;77.70
21734;DHT22;11029;47.820;10.534;2024-03-22T00:03:31;4.30;79.90
21734;DHT22;11029;47.820;10.534;2024-03-22T00:06:15;4.30;79.80
21734;DHT22;11029;47.820;10.534;2024-03-22T00:09:00;4.30;78.50
21734;DHT22;11029;47.820;10.534;2024-03-22T00:11:45;4.30;78.40
21734;DHT22;11029;47.820;10.534;2024-03-22T00:14:29;4.30;78.80
21734;DHT22;11029;47.820;10.534;2024-03-22T00:17:14;4.30;79.00
21734;DHT22;11029;47.820;10.534;2024-03-22T00:19:59;4.40;79.30
21734;DHT22;11029;47.820;10.534;2024-03-22T00:22:44;4.40;79.00
21734;DHT22;11029;47.820;10.534;2024-03-22T00:25:31;4.40;78.80
21734;DHT22;11029;47.820;10.534;2024-03-22T00:28:16;4.50;78.80
21734;DHT22;11029;47.820;10.534;2024-03-22T00:31:01;4.50;78.30
21734;DHT22;11029;47.820;10.534;2024-03-22T00:33:45;4.60;78.10
21734;DHT22;11029;47.820;10.534;2024-03-22T00:36:30;4.60;78.10
21734;DHT22;11029;47.820;10.534;2024-03-22T00:39:14;4.60;78.30
21734;DHT22;11029;47.820;10.534;2024-03-22T00:41:59;4.60;77.90
21734;DHT22;11029;47.820;10.534;2024-03-22T00:44:44;4.70;78.30
21734;DHT22;11029;47.820;10.534;2024-03-22T00:47:28;4.80;77.80
21734;DHT22;11029;47.820;10.534;2024-03-22T00:50:13;4.90;78.10
21734;DHT22;11029;47.820;10.534;2024-03-22T00:52:57;4.90;77.80
21734;DHT22;11029;47.820;10.534;2024-03-22T00:55:42;4.80;77.50
21734;DHT22;11029;47.820;10.534;2024-03-22T00:58:27;4.80;77.30
21734;DHT22;11029;47.820;10.534;2024-03-22T01:01:12;4.90;78.00
21734;DHT22;11029;47.820;10.534;2024-03-22T01:03:58;4.90;78.00
21734;DHT22;11029;47.820;10.534;2024-03-22T01:06:42;4.90;77.70
21734;DHT22;11029;47.820;10.534;2024-03-22T01:09:27;5.00;77.70
21734;DHT22;11029;47.820;10.534;2024-03-22T01:12:12;4.90;76.90
21734;DHT22;11029;47.820;10.534;2024-03-22T01:14:57;4.80;76.90
21734;DHT22;11029;47.820;10.534;2024-03-22T01:17:42;4.70;77.60
21734;DHT22;11029;47.820;10.534;2024-03-22T01:20:27;4.60;78.40
21734;DHT22;11029;47.820;10.534;2024-03-22T01:23:11;4.50;78.80
21734;DHT22;11029;47.820;10.534;2024-03-22T01:25:56;4.50;78.70
21734;DHT22;11029;47.820;10.534;2024-03-22T01:28:41;4.50;79.20
21734;DHT22;11029;47.820;10.534;2024-03-22T01:31:26;4.50;79.30
21734;DHT22;11029;47.820;10.534;2024-03-22T01:34:10;4.50;79.70
21734;DHT22;11029;47.820;10.534;2024-03-22T01:36:55;4.50;79.80
21734;DHT22;11029;47.820;10.534;2024-03-22T01:39:40;4.60;79.30
21734;DHT22;11029;47.820;10.534;2024-03-22T01:42:25;4.60;79.20
21734;DHT22;11029;47.820;10.534;2024-03-22T01:45:11;4.60;79.00
21734;DHT22;11029;47.820;10.534;2024-03-22T01:47:58;4.70;78.90
21734;DHT22;11029;47.820;10.534;2024-03-22T01:50:44;4.70;78.00
21734;DHT22;11029;47.820;10.534;2024-03-22T01:53:28;4.60;78.50
21734;DHT22;11029;47.820;10.534;2024-03-22T01:56:13;4.60;78.70
21734;DHT22;11029;47.820;10.534;2024-03-22T01:58:58;4.60;78.40
21734;DHT22;11029;47.820;10.534;2024-03-22T02:01:43;4.60;78.30
21734;DHT22;11029;47.820;10.534;2024-03-22T02:04:27;4.60;78.60
21734;DHT22;11029;47.820;10.534;2024-03-22T02:07:12;4.60;79.30
21734;DHT22;11029;47.820;10.534;2024-03-22T02:09:57;4.70;78.90
21734;DHT22;11029;47.820;10.534;2024-03-22T02:12:41;4.60;77.10
21734;DHT22;11029;47.820;10.534;2024-03-22T02:15:26;4.40;78.20
21734;DHT22;11029;47.820;10.534;2024-03-22T02:18:10;4.20;79.40
21734;DHT22;11029;47.820;10.534;2024-03-22T02:20:57;4.10;79.70
21734;DHT22;11029;47.820;10.534;2024-03-22T02:23:41;4.10;80.10
21734;DHT22;11029;47.820;10.534;2024-03-22T02:26:26;4.00;80.70
21734;DHT22;11029;47.820;10.534;2024-03-22T02:29:11;4.10;80.50
21734;DHT22;11029;47.820;10.534;2024-03-22T02:31:56;4.10;79.30
21734;DHT22;11029;47.820;10.534;2024-03-22T02:34:42;4.10;79.40
21734;DHT22;11029;47.820;10.534;2024-03-22T02:37:27;4.00;79.00
21734;DHT22;11029;47.820;10.534;2024-03-22T02:40:12;4.00;78.70
21734;DHT22;11029;47.820;10.534;2024-03-22T02:42:57;4.00;78.70
21734;DHT22;11029;47.820;10.534;2024-03-22T02:45:41;3.90;79.00
21734;DHT22;11029;47.820;10.534;2024-03-22T02:48:26;3.90;78.80
21734;DHT22;11029;47.820;10.534;2024-03-22T02:51:13;3.90;78.50
21734;DHT22;11029;47.820;10.534;2024-03-22T02:53:57;3.90;78.30
21734;DHT22;11029;47.820;10.534;2024-03-22T02:56:42;3.80;78.00
21734;DHT22;11029;47.820;10.534;2024-03-22T02:59:27;3.80;77.70
21734;DHT22;11029;47.820;10.534;2024-03-22T03:04:57;4.30;76.50
21734;DHT22;11029;47.820;10.534;2024-03-22T03:07:41;3.80;77.20
21734;DHT22;11029;47.820;10.534;2024-03-22T03:10:26;3.60;77.60
21734;DHT22;11029;47.820;10.534;2024-03-22T03:13:11;3.60;77.30
21734;DHT22;11029;47.820;10.534;2024-03-22T03:15:57;3.60;77.70
21734;DHT22;11029;47.820;10.534;2024-03-22T03:18:42;3.50;77.80
21734;DHT22;11029;47.820;10.534;2024-03-22T03:21:26;3.40;78.00
21734;DHT22;11029;47.820;10.534;2024-03-22T03:24:11;3.40;77.90
21734;DHT22;11029;47.820;10.534;2024-03-22T03:26:56;3.40;77.10
21734;DHT22;11029;47.820;10.534;2024-03-22T03:29:40;3.40;77.80
21734;DHT22;11029;47.820;10.534;2024-03-22T03:32:26;3.30;78.10
21734;DHT22;11029;47.820;10.534;2024-03-22T03:35:11;3.30;78.00
21734;DHT22;11029;47.820;10.534;2024-03-22T03:37:56;3.30;77.90
21734;DHT22;11029;47.820;10.534;2024-03-22T03:40:40;3.20;77.80
21734;DHT22;11029;47.820;10.534;2024-03-22T03:43:25;3.30;77.50
21734;DHT22;11029;47.820;10.534;2024-03-22T03:46:10;3.20;77.70
21734;DHT22;11029;47.820;10.534;2024-03-22T03:48:54;3.20;78.50
21734;DHT22;11029;47.820;10.534;2024-03-22T03:51:39;3.20;77.80
21734;DHT22;11029;47.820;10.534;2024-03-22T03:54:23;3.10;78.20
21734;DHT22;11029;47.820;10.534;2024-03-22T03:57:08;3.00;78.50
21734;DHT22;11029;47.820;10.534;2024-03-22T03:59:53;3.00;78.60
21734;DHT22;11029;47.820;10.534;2024-03-22T04:02:37;3.00;79.00
21734;DHT22;11029;47.820;10.534;2024-03-22T04:05:22;3.00;78.80
21734;DHT22;11029;47.820;10.534;2024-03-22T04:08:06;3.00;78.00
21734;DHT22;11029;47.820;10.534;2024-03-22T04:10:52;2.90;78.20
21734;DHT22;11029;47.820;10.534;2024-03-22T04:13:37;2.90;78.50
21734;DHT22;11029;47.820;10.534;2024-03-22T04:16:22;2.80;78.70
21734;DHT22;11029;47.820;10.534;2024-03-22T04:19:06;2.80;78.30
21734;DHT22;11029;47.820;10.534;2024-03-22T04:21:51;3.10;77.80
21734;DHT22;11029;47.820;10.534;2024-03-22T04:24:36;2.70;77.80
21734;DHT22;11029;47.820;10.534;2024-03-22T04:27:20;2.80;78.30
21734;DHT22;11029;47.820;10.534;2024-03-22T04:30:06;2.80;78.50
21734;DHT22;11029;47.820;10.534;2024-03-22T04:32:51;2.80;77.60
21734;DHT22;11029;47.820;10.534;2024-03-22T04:35:35;2.80;77.80
21734;DHT22;11029;47.820;10.534;2024-03-22T04:38:20;2.80;77.30
21734;DHT22;11029;47.820;10.534;2024-03-22T04:41:05;2.80;77.30
21734;DHT22;11029;47.820;10.534;2024-03-22T04:43:49;2.90;77.40
21734;DHT22;11029;47.820;10.534;2024-03-22T04:46:34;2.90;77.40
21734;DHT22;11029;47.820;10.534;2024-03-22T04:49:19;2.90;77.70
21734;DHT22;11029;47.820;10.534;2024-03-22T04:52:03;2.90;77.50
21734;DHT22;11029;47.820;10.534;2024-03-22T04:54:48;2.90;77.30
21734;DHT22;11029;47.820;10.534;2024-03-22T04:57:33;2.80;77.40
21734;DHT22;11029;47.820;10.534;2024-03-22T05:00:18;2.80;77.10
21734;DHT22;11029;47.820;10.534;2024-03-22T05:03:03;2.80;77.50
21734;DHT22;11029;47.820;10.534;2024-03-22T05:05:49;2.80;77.80
21734;DHT22;11029;47.820;10.534;2024-03-22T05:08:34;2.70;77.80
21734;DHT22;11029;47.820;10.534;2024-03-22T05:11:19;2.80;77.90
21734;DHT22;11029;47.820;10.534;2024-03-22T05:14:04;2.80;77.60
21734;DHT22;11029;47.820;10.534;2024-03-22T05:16:48;2.70;78.10
21734;DHT22;11029;47.820;10.534;2024-03-22T05:19:33;2.70;77.90
21734;DHT22;11029;47.820;10.534;2024-03-22T05:22:18;2.70;77.20
21734;DHT22;11029;47.820;10.534;2024-03-22T05:25:04;2.60;78.10
21734;DHT22;11029;47.820;10.534;2024-03-22T05:27:49;2.60;78.80
21734;DHT22;11029;47.820;10.534;2024-03-22T05:30:34;2.70;78.40
21734;DHT22;11029;47.820;10.534;2024-03-22T05:33:19;2.70;77.80
21734;DHT22;11029;47.820;10.534;2024-03-22T05:36:03;2.70;77.50
21734;DHT22;11029;47.820;10.534;2024-03-22T05:38:48;2.70;77.20
21734;DHT22;11029;47.820;10.534;2024-03-22T05:41:33;2.70;77.00
21734;DHT22;11029;47.820;10.534;2024-03-22T05:44:18;2.80;76.90
21734;DHT22;11029;47.820;10.534;2024-03-22T05:47:03;2.70;76.40
21734;DHT22;11029;47.820;10.534;2024-03-22T05:49:48;2.70;76.00
21734;DHT22;11029;47.820;10.534;2024-03-22T05:52:33;2.60;77.20
21734;DHT22;11029;47.820;10.534;2024-03-22T05:55:18;2.60;78.00
21734;DHT22;11029;47.820;10.534;2024-03-22T05:58:02;2.70;78.20
21734;DHT22;11029;47.820;10.534;2024-03-22T06:00:47;2.70;78.20
21734;DHT22;11029;47.820;10.534;2024-03-22T06:03:32;2.70;78.50
21734;DHT22;11029;47.820;10.534;2024-03-22T06:06:17;2.80;78.60
21734;DHT22;11029;47.820;10.534;2024-03-22T06:09:02;2.90;78.70
21734;DHT22;11029;47.820;10.534;2024-03-22T06:11:48;3.00;78.20
21734;DHT22;11029;47.820;10.534;2024-03-22T06:14:34;3.00;78.20
21734;DHT22;11029;47.820;10.534;2024-03-22T06:17:18;3.10;77.90
21734;DHT22;11029;47.820;10.534;2024-03-22T06:20:03;3.20;78.30
21734;DHT22;11029;47.820;10.534;2024-03-22T06:22:49;3.30;78.00
21734;DHT22;11029;47.820;10.534;2024-03-22T06:25:34;3.40;77.80
21734;DHT22;11029;47.820;10.534;2024-03-22T06:28:19;3.60;77.90
21734;DHT22;11029;47.820;10.534;2024-03-22T06:31:04;3.70;77.90
21734;DHT22;11029;47.820;10.534;2024-03-22T06:33:48;3.90;78.10
21734;DHT22;11029;47.820;10.534;2024-03-22T06:36:33;4.60;77.20
21734;DHT22;11029;47.820;10.534;2024-03-22T06:39:18;4.20;78.70
21734;DHT22;11029;47.820;10.534;2024-03-22T06:42:04;4.40;78.60
21734;DHT22;11029;47.820;10.534;2024-03-22T06:44:49;4.60;78.20
21734;DHT22;11029;47.820;10.534;2024-03-22T06:47:33;4.80;77.70
21734;DHT22;11029;47.820;10.534;2024-03-22T06:50:17;5.00;76.30
21734;DHT22;11029;47.820;10.534;2024-03-22T06:53:04;5.20;76.40
21734;DHT22;11029;47.820;10.534;2024-03-22T06:55:49;5.40;76.30
21734;DHT22;11029;47.820;10.534;2024-03-22T06:58:35;5.60;76.10
21734;DHT22;11029;47.820;10.534;2024-03-22T07:01:20;5.80;75.40
21734;DHT22;11029;47.820;10.534;2024-03-22T07:04:05;5.90;74.60
21734;DHT22;11029;47.820;10.534;2024-03-22T07:06:50;5.90;76.00
21734;DHT22;11029;47.820;10.534;2024-03-22T07:09:34;6.10;74.70
21734;DHT22;11029;47.820;10.534;2024-03-22T07:12:20;6.20;75.10
21734;DHT22;11029;47.820;10.534;2024-03-22T07:15:05;6.40;74.90
21734;DHT22;11029;47.820;10.534;2024-03-22T07:17:50;6.60;74.90
21734;DHT22;11029;47.820;10.534;2024-03-22T07:20:35;6.80;74.30
21734;DHT22;11029;47.820;10.534;2024-03-22T07:23:20;7.00;73.50
21734;DHT22;11029;47.820;10.534;2024-03-22T07:26:05;7.10;73.90
21734;DHT22;11029;47.820;10.534;2024-03-22T07:28:52;7.30;73.60
21734;DHT22;11029;47.820;10.534;2024-03-22T07:31:37;7.50;73.50
21734;DHT22;11029;47.820;10.534;2024-03-22T07:34:22;7.70;73.10
21734;DHT22;11029;47.820;10.534;2024-03-22T07:37:06;8.00;73.00
21734;DHT22;11029;47.820;10.534;2024-03-22T07:39:51;8.20;72.60
21734;DHT22;11029;47.820;10.534;2024-03-22T07:42:35;8.50;72.10
21734;DHT22;11029;47.820;10.534;2024-03-22T07:45:20;8.80;71.60
21734;DHT22;11029;47.820;10.534;2024-03-22T07:48:05;9.00;71.40
21734;DHT22;11029;47.820;10.534;2024-03-22T07:50:57;9.20;71.20
21734;DHT22;11029;47.820;10.534;2024-03-22T07:53:42;9.40;71.10
21734;DHT22;11029;47.820;10.534;2024-03-22T07:56:26;9.60;70.70
21734;DHT22;11029;47.820;10.534;2024-03-22T07:59:11;9.80;70.30
21734;DHT22;11029;47.820;10.534;2024-03-22T08:01:56;9.90;69.80
21734;DHT22;11029;47.820;10.534;2024-03-22T08:04:42;10.20;69.20
21734;DHT22;11029;47.820;10.534;2024-03-22T08:07:27;10.50;69.60
21734;DHT22;11029;47.820;10.534;2024-03-22T08:10:14;10.70;69.70
21734;DHT22;11029;47.820;10.534;2024-03-22T08:13:00;10.80;69.20
21734;DHT22;11029;47.820;10.534;2024-03-22T08:15:45;11.00;67.90
21734;DHT22;11029;47.820;10.534;2024-03-22T08:18:30;11.10;67.80
21734;DHT22;11029;47.820;10.534;2024-03-22T08:21:15;11.30;67.40
21734;DHT22;11029;47.820;10.534;2024-03-22T08:24:00;11.40;66.40
21734;DHT22;11029;47.820;10.534;2024-03-22T08:26:45;11.40;65.90
21734;DHT22;11029;47.820;10.534;2024-03-22T08:29:31;11.50;65.60
21734;DHT22;11029;47.820;10.534;2024-03-22T08:32:15;11.70;65.90
21734;DHT22;11029;47.820;10.534;2024-03-22T08:35:00;11.90;65.40
21734;DHT22;11029;47.820;10.534;2024-03-22T08:37:45;11.90;61.90
21734;DHT22;11029;47.820;10.534;2024-03-22T08:40:29;11.90;60.20
21734;DHT22;11029;47.820;10.534;2024-03-22T08:43:14;12.00;59.90
21734;DHT22;11029;47.820;10.534;2024-03-22T08:45:59;12.00;60.80
21734;DHT22;11029;47.820;10.534;2024-03-22T08:48:44;12.10;61.00
21734;DHT22;11029;47.820;10.534;2024-03-22T08:51:29;12.20;60.20
21734;DHT22;11029;47.820;10.534;2024-03-22T08:54:14;12.30;59.80
21734;DHT22;11029;47.820;10.534;2024-03-22T08:56:59;12.40;58.20
21734;DHT22;11029;47.820;10.534;2024-03-22T08:59:44;12.40;58.00
21734;DHT22;11029;47.820;10.534;2024-03-22T09:02:28;12.50;58.50
21734;DHT22;11029;47.820;10.534;2024-03-22T09:05:13;12.50;58.00
21734;DHT22;11029;47.820;10.534;2024-03-22T09:07:58;12.60;59.20
21734;DHT22;11029;47.820;10.534;2024-03-22T09:10:42;12.60;56.90
21734;DHT22;11029;47.820;10.534;2024-03-22T09:13:27;12.60;57.80
21734;DHT22;11029;47.820;10.534;2024-03-22T09:16:12;12.70;58.10
21734;DHT22;11029;47.820;10.534;2024-03-22T09:18:56;12.90;58.00
21734;DHT22;11029;47.820;10.534;2024-03-22T09:21:42;13.00;57.20
21734;DHT22;11029;47.820;10.534;2024-03-22T09:24:27;13.20;58.10
21734;DHT22;11029;47.820;10.534;2024-03-22T09:27:11;13.30;56.20
21734;DHT22;11029;47.820;10.534;2024-03-22T09:29:56;13.30;56.00
21734;DHT22;11029;47.820;10.534;2024-03-22T09:32:42;13.30;54.60
21734;DHT22;11029;47.820;10.534;2024-03-22T09:35:29;13.30;53.70
21734;DHT22;11029;47.820;10.534;2024-03-22T09:38:13;13.20;54.90
21734;DHT22;11029;47.820;10.534;2024-03-22T09:40:59;13.20;56.00
21734;DHT22;11029;47.820;10.534;2024-03-22T09:43:47;13.30;54.20
21734;DHT22;11029;47.820;10.534;2024-03-22T09:46:35;13.50;55.20
21734;DHT22;11029;47.820;10.534;2024-03-22T09:49:21;13.50;54.10
21734;DHT22;11029;47.820;10.534;2024-03-22T09:52:08;13.50;55.10
21734;DHT22;11029;47.820;10.534;2024-03-22T09:54:53;13.60;56.00
21734;DHT22;11029;47.820;10.534;2024-03-22T09:57:39;13.50;53.70
21734;DHT22;11029;47.820;10.534;2024-03-22T10:00:24;13.60;54.30
21734;DHT22;11029;47.820;10.534;2024-03-22T10:03:11;13.80;53.40
21734;DHT22;11029;47.820;10.534;2024-03-22T10:05:55;13.80;52.90
21734;DHT22;11029;47.820;10.534;2024-03-22T10:08:40;13.90;53.90
21734;DHT22;11029;47.820;10.534;2024-03-22T10:11:26;14.00;53.80
21734;DHT22;11029;47.820;10.534;2024-03-22T10:14:11;14.00;53.80
21734;DHT22;11029;47.820;10.534;2024-03-22T10:16:57;14.10;52.10
21734;DHT22;11029;47.820;10.534;2024-03-22T10:19:41;14.00;51.20
21734;DHT22;11029;47.820;10.534;2024-03-22T10:22:26;14.00;52.20
21734;DHT22;11029;47.820;10.534;2024-03-22T10:25:12;14.10;51.90
21734;DHT22;11029;47.820;10.534;2024-03-22T10:27:57;14.10;53.10
21734;DHT22;11029;47.820;10.534;2024-03-22T10:30:44;14.30;52.60
21734;DHT22;11029;47.820;10.534;2024-03-22T10:33:29;14.30;52.60
21734;DHT22;11029;47.820;10.534;2024-03-22T10:36:16;14.40;49.80
21734;DHT22;11029;47.820;10.534;2024-03-22T10:39:02;14.50;50.20
21734;DHT22;11029;47.820;10.534;2024-03-22T10:41:49;14.70;50.50
21734;DHT22;11029;47.820;10.534;2024-03-22T10:44:33;14.80;48.30
21734;DHT22;11029;47.820;10.534;2024-03-22T10:47:24;14.90;49.50
21734;DHT22;11029;47.820;10.534;2024-03-22T10:50:12;15.00;50.60
21734;DHT22;11029;47.820;10.534;2024-03-22T10:53:03;14.80;50.60
21734;DHT22;11029;47.820;10.534;2024-03-22T10:55:51;14.70;48.10
21734;DHT22;11029;47.820;10.534;2024-03-22T10:58:39;14.60;49.50
21734;DHT22;11029;47.820;10.534;2024-03-22T11:01:26;14.50;50.70
21734;DHT22;11029;47.820;10.534;2024-03-22T11:04:21;14.50;50.70
21734;DHT22;11029;47.820;10.534;2024-03-22T11:07:20;14.50;50.00
21734;DHT22;11029;47.820;10.534;2024-03-22T11:10:05;14.50;51.90
21734;DHT22;11029;47.820;10.534;2024-03-22T11:12:51;14.50;53.60
21734;DHT22;11029;47.820;10.534;2024-03-22T11:15:36;14.50;53.00
21734;DHT22;11029;47.820;10.534;2024-03-22T11:18:20;14.60;53.20
21734;DHT22;11029;47.820;10.534;2024-03-22T11:21:05;14.50;53.30
21734;DHT22;11029;47.820;10.534;2024-03-22T11:23:53;14.50;53.50
21734;DHT22;11029;47.820;10.534;2024-03-22T11:26:38;14.40;52.10
21734;DHT22;11029;47.820;10.534;2024-03-22T11:29:23;14.40;53.00
21734;DHT22;11029;47.820;10.534;2024-03-22T11:32:09;14.40;53.30
21734;DHT22;11029;47.820;10.534;2024-03-22T11:34:54;14.40;52.90
21734;DHT22;11029;47.820;10.534;2024-03-22T11:37:39;14.50;52.00
21734;DHT22;11029;47.820;10.534;2024-03-22T11:40:26;14.70;53.70
21734;DHT22;11029;47.820;10.534;2024-03-22T11:43:11;14.90;50.40
21734;DHT22;11029;47.820;10.534;2024-03-22T11:45:59;15.10;50.30
21734;DHT22;11029;47.820;10.534;2024-03-22T11:48:51;15.40;50.80
21734;DHT22;11029;47.820;10.534;2024-03-22T11:51:38;15.60;48.50
21734;DHT22;11029;47.820;10.534;2024-03-22T11:54:23;15.60;50.80
21734;DHT22;11029;47.820;10.534;2024-03-22T11:57:10;15.90;49.70
21734;DHT22;11029;47.820;10.534;2024-03-22T11:59:59;15.90;49.70
21734;DHT22;11029;47.820;10.534;2024-03-22T12:02:45;16.10;49.20
21734;DHT22;11029;47.820;10.534;2024-03-22T12:05:30;15.90;48.80
21734;DHT22;11029;47.820;10.534;2024-03-22T12:08:20;15.90;46.40
21734;DHT22;11029;47.820;10.534;2024-03-22T12:11:04;15.70;46.10
21734;DHT22;11029;47.820;10.534;2024-03-22T12:13:53;15.50;47.30
21734;DHT22;11029;47.820;10.534;2024-03-22T12:16:38;15.50;47.60
21734;DHT22;11029;47.820;10.534;2024-03-22T12:19:23;15.70;47.10
21734;DHT22;11029;47.820;10.534;2024-03-22T12:22:07;15.40;44.50
21734;DHT22;11029;47.820;10.534;2024-03-22T12:24:52;15.20;45.50
21734;DHT22;11029;47.820;10.534;2024-03-22T12:27:36;15.10;47.80
21734;DHT22;11029;47.820;10.534;2024-03-22T12:30:22;15.30;46.20
21734;DHT22;11029;47.820;10.534;2024-03-22T12:33:06;15.30;46.70
21734;DHT22;11029;47.820;10.534;2024-03-22T12:35:54;15.30;46.70
21734;DHT22;11029;47.820;10.534;2024-03-22T12:38:39;15.30;47.30
21734;DHT22;11029;47.820;10.534;2024-03-22T12:41:23;15.40;47.00
21734;DHT22;11029;47.820;10.534;2024-03-22T12:44:08;15.50;46.90
21734;DHT22;11029;47.820;10.534;2024-03-22T12:46:53;15.60;45.80
21734;DHT22;11029;47.820;10.534;2024-03-22T12:49:38;15.80;46.50
21734;DHT22;11029;47.820;10.534;2024-03-22T12:52:23;16.00;47.10
21734;DHT22;11029;47.820;10.534;2024-03-22T12:55:08;16.20;44.90
21734;DHT22;11029;47.820;10.534;2024-03-22T12:57:52;16.00;45.30
21734;DHT22;11029;47.820;10.534;2024-03-22T13:00:37;15.90;45.10
21734;DHT22;11029;47.820;10.534;2024-03-22T13:03:23;16.00;46.40
21734;DHT22;11029;47.820;10.534;2024-03-22T13:06:10;16.10;46.20
21734;DHT22;11029;47.820;10.534;2024-03-22T13:08:54;16.10;46.50
21734;DHT22;11029;47.820;10.534;2024-03-22T13:11:39;16.30;44.50
21734;DHT22;11029;47.820;10.534;2024-03-22T13:14:25;16.10;43.90
21734;DHT22;11029;47.820;10.534;2024-03-22T13:17:09;16.30;44.70
21734;DHT22;11029;47.820;10.534;2024-03-22T13:19:54;16.40;44.20
21734;DHT22;11029;47.820;10.534;2024-03-22T13:22:39;16.50;45.30
21734;DHT22;11029;47.820;10.534;2024-03-22T13:25:23;16.50;43.80
21734;DHT22;11029;47.820;10.534;2024-03-22T13:28:08;16.30;42.90
21734;DHT22;11029;47.820;10.534;2024-03-22T13:31:03;16.00;42.80
21734;DHT22;11029;47.820;10.534;2024-03-22T13:33:50;15.90;41.90
21734;DHT22;11029;47.820;10.534;2024-03-22T13:36:35;16.00;42.80
21734;DHT22;11029;47.820;10.534;2024-03-22T13:39:22;16.20;40.50
21734;DHT22;11029;47.820;10.534;2024-03-22T13:42:07;16.30;42.10
21734;DHT22;11029;47.820;10.534;2024-03-22T13:44:53;16.40;40.60
21734;DHT22;11029;47.820;10.534;2024-03-22T13:47:38;16.50;40.60
21734;DHT22;11029;47.820;10.534;2024-03-22T13:50:24;16.40;40.50
21734;DHT22;11029;47.820;10.534;2024-03-22T13:53:09;16.60;41.80
21734;DHT22;11029;47.820;10.534;2024-03-22T13:55:53;16.70;43.70
21734;DHT22;11029;47.820;10.534;2024-03-22T13:58:38;16.60;39.90
21734;DHT22;11029;47.820;10.534;2024-03-22T14:01:23;16.60;40.90
21734;DHT22;11029;47.820;10.534;2024-03-22T14:04:09;16.80;43.20
21734;DHT22;11029;47.820;10.534;2024-03-22T14:06:55;16.90;41.50
21734;DHT22;11029;47.820;10.534;2024-03-22T14:09:39;16.80;39.60
21734;DHT22;11029;47.820;10.534;2024-03-22T14:12:25;16.70;39.40
21734;DHT22;11029;47.820;10.534;2024-03-22T14:15:09;16.90;40.80
21734;DHT22;11029;47.820;10.534;2024-03-22T14:17:54;17.00;40.30
21734;DHT22;11029;47.820;10.534;2024-03-22T14:20:40;17.40;40.70
21734;DHT22;11029;47.820;10.534;2024-03-22T14:23:25;17.50;38.20
21734;DHT22;11029;47.820;10.534;2024-03-22T14:26:10;17.40;38.70
21734;DHT22;11029;47.820;10.534;2024-03-22T14:28:55;17.20;39.20
21734;DHT22;11029;47.820;10.534;2024-03-22T14:31:40;17.40;38.00
21734;DHT22;11029;47.820;10.534;2024-03-22T14:34:25;17.70;38.10
21734;DHT22;11029;47.820;10.534;2024-03-22T14:37:10;17.90;41.00
21734;DHT22;11029;47.820;10.534;2024-03-22T14:39:57;18.40;40.20
21734;DHT22;11029;47.820;10.534;2024-03-22T14:42:42;18.60;37.10
21734;DHT22;11029;47.820;10.534;2024-03-22T14:45:28;18.20;37.00
21734;DHT22;11029;47.820;10.534;2024-03-22T14:48:12;17.60;37.80
21734;DHT22;11029;47.820;10.534;2024-03-22T14:50:57;17.70;38.00
21734;DHT22;11029;47.820;10.534;2024-03-22T14:53:42;18.20;36.20
21734;DHT22;11029;47.820;10.534;2024-03-22T14:56:27;18.90;36.60
21734;DHT22;11029;47.820;10.534;2024-03-22T14:59:12;19.80;35.20
21734;DHT22;11029;47.820;10.534;2024-03-22T15:01:56;20.20;33.80
21734;DHT22;11029;47.820;10.534;2024-03-22T15:04:41;20.20;33.90
21734;DHT22;11029;47.820;10.534;2024-03-22T15:07:26;21.20;34.40
21734;DHT22;11029;47.820;10.534;2024-03-22T15:10:11;21.60;34.80
21734;DHT22;11029;47.820;10.534;2024-03-22T15:12:55;21.50;35.10
21734;DHT22;11029;47.820;10.534;2024-03-22T15:15:41;21.10;34.90
21734;DHT22;11029;47.820;10.534;2024-03-22T15:18:26;21.10;35.50
21734;DHT22;11029;47.820;10.534;2024-03-22T15:21:13;21.10;34.80
21734;DHT22;11029;47.820;10.534;2024-03-22T15:23:58;21.10;35.00
21734;DHT22;11029;47.820;10.534;2024-03-22T15:26:42;21.70;34.00
21734;DHT22;11029;47.820;10.534;2024-03-22T15:29:27;22.40;32.70
21734;DHT22;11029;47.820;10.534;2024-03-22T15:32:12;22.60;33.30
21734;DHT22;11029;47.820;10.534;2024-03-22T15:34:56;22.20;32.70
21734;DHT22;11029;47.820;10.534;2024-03-22T15:37:41;21.20;33.00
21734;DHT22;11029;47.820;10.534;2024-03-22T15:40:26;19.90;33.80
21734;DHT22;11029;47.820;10.534;2024-03-22T15:43:11;18.50;36.70
21734;DHT22;11029;47.820;10.534;2024-03-22T15:45:57;17.50;37.00
21734;DHT22;11029;47.820;10.534;2024-03-22T15:48:41;16.90;39.00
21734;DHT22;11029;47.820;10.534;2024-03-22T15:51:26;16.60;39.90
21734;DHT22;11029;47.820;10.534;2024-03-22T15:54:11;16.40;39.40
21734;DHT22;11029;47.820;10.534;2024-03-22T15:56:55;16.30;40.50
21734;DHT22;11029;47.820;10.534;2024-03-22T15:59:40;16.30;39.60
21734;DHT22;11029;47.820;10.534;2024-03-22T16:02:25;16.20;40.00
21734;DHT22;11029;47.820;10.534;2024-03-22T16:05:09;16.80;40.00
21734;DHT22;11029;47.820;10.534;2024-03-22T16:07:54;18.60;37.40
21734;DHT22;11029;47.820;10.534;2024-03-22T16:10:39;20.80;34.90
21734;DHT22;11029;47.820;10.534;2024-03-22T16:13:23;22.00;33.50
21734;DHT22;11029;47.820;10.534;2024-03-22T16:16:08;22.40;33.50
21734;DHT22;11029;47.820;10.534;2024-03-22T16:18:53;22.10;33.30
21734;DHT22;11029;47.820;10.534;2024-03-22T16:21:37;21.90;32.20
21734;DHT22;11029;47.820;10.534;2024-03-22T16:24:22;21.60;32.20
21734;DHT22;11029;47.820;10.534;2024-03-22T16:27:07;22.10;32.70
21734;DHT22;11029;47.820;10.534;2024-03-22T16:29:51;22.50;32.40
21734;DHT22;11029;47.820;10.534;2024-03-22T16:32:36;22.40;32.30
21734;DHT22;11029;47.820;10.534;2024-03-22T16:35:20;22.00;33.00
21734;DHT22;11029;47.820;10.534;2024-03-22T16:38:05;22.20;31.80
21734;DHT22;11029;47.820;10.534;2024-03-22T16:40:50;21.60;32.20
21734;DHT22;11029;47.820;10.534;2024-03-22T16:43:35;21.20;33.00
21734;DHT22;11029;47.820;10.534;2024-03-22T16:46:20;21.30;33.30
21734;DHT22;11029;47.820;10.534;2024-03-22T16:49:04;21.70;32.60
21734;DHT22;11029;47.820;10.534;2024-03-22T16:51:49;22.20;32.00
21734;DHT22;11029;47.820;10.534;2024-03-22T16:54:34;22.00;32.50
21734;DHT22;11029;47.820;10.534;2024-03-22T16:57:18;21.80;32.90
21734;DHT22;11029;47.820;10.534;2024-03-22T17:00:03;21.40;33.50
21734;DHT22;11029;47.820;10.534;2024-03-22T17:02:51;20.70;34.50
21734;DHT22;11029;47.820;10.534;2024-03-22T17:05:36;20.30;35.10
21734;DHT22;11029;47.820;10.534;2024-03-22T17:08:21;19.60;36.10
21734;DHT22;11029;47.820;10.534;2024-03-22T17:11:06;18.90;36.60
21734;DHT22;11029;47.820;10.534;2024-03-22T17:13:50;18.60;35.90
21734;DHT22;11029;47.820;10.534;2024-03-22T17:16:36;18.60;36.40